KGCY/GCY METAR and TAF weather

Enter ICAO airport designator
Station Type Date Time Source
KGCY METAR 2022/06/30 02:15 UTC NOAA

KGCY 300215Z AUTO VRB03KT 10SM CLR 24/18 A3024 RMK A01


Station Type Date Time Source
KGCY Decoded METAR 2022/06/30 02:15 UTC NOAA

Station name not available
Jun 29, 2022 - 10:15 PM EDT / 2022.06.30 0215 UTC
Wind: Variable at 3 MPH (3 KT):0
Visibility: 10 mile(s):0
Sky conditions: clear
Temperature: 75 F (24 C)
Dew Point: 64 F (18 C)
Relative Humidity: 69%
Pressure (altimeter): 30.24 in. Hg (1024 hPa)
ob: KGCY 300215Z AUTO VRB03KT 10SM CLR 24/18 A3024 RMK A01
cycle: 2

Station Type Date Time Source
KGCY TAF UTC NOAA

Error!

Example: see airport list